Time;durP1;ratioP1;P1;durP2;ratioP2;P2;SDS_P1;SDS_P2;PMS_P1;PMS_P2;Temp;Humidity;BMP_temperature;BMP_pressure;BME280_temperature;BME280_humidity;BME280_pressure;Samples;Min_cycle;Max_cycle;Signal;HPM_P1;HPM_P2
2024/01/30 00:01:41;;;;;;;3.70;2.10;;;;;;;5.20;38.83;100889.22;4965830;28;20053;-86
2024/01/30 00:04:06;;;;;;;4.15;2.20;;;;;;;5.18;38.92;100898.75;5011350;28;20026;-86
2024/01/30 00:06:32;;;;;;;3.80;2.47;;;;;;;5.21;38.78;100899.53;4994621;28;20049;-86
2024/01/30 00:08:57;;;;;;;4.03;2.38;;;;;;;5.21;38.95;100896.97;4977430;28;20045;-81
2024/01/30 00:11:25;;;;;;;3.88;2.35;;;;;;;5.18;39.35;100889.25;4977040;28;20042;-88
2024/01/30 00:13:51;;;;;;;4.03;2.13;;;;;;;5.23;39.17;100895.22;4994313;28;20104;-89
2024/01/30 00:16:26;;;;;;;5.30;2.70;;;;;;;5.20;39.24;100884.03;4962147;28;20038;-91
2024/01/30 00:18:52;;;;;;;6.30;2.47;;;;;;;5.23;39.56;100891.75;4982665;28;20044;-88
2024/01/30 00:21:17;;;;;;;5.07;2.80;;;;;;;5.24;39.31;100903.81;4965315;28;20038;-87
2024/01/30 00:23:43;;;;;;;4.85;2.85;;;;;;;5.18;39.88;100889.25;4981147;28;20212;-90
2024/01/30 00:26:09;;;;;;;4.93;2.80;;;;;;;5.21;39.52;100896.13;4981420;28;20037;-81
2024/01/30 00:28:34;;;;;;;4.53;2.65;;;;;;;5.16;40.08;100892.78;4965121;28;20038;-90
2024/01/30 00:31:00;;;;;;;5.40;2.92;;;;;;;5.11;40.27;100894.56;4965868;28;20133;-89
2024/01/30 00:33:25;;;;;;;4.20;2.75;;;;;;;5.12;39.67;100902.31;4981165;28;20038;-89
2024/01/30 00:35:51;;;;;;;5.40;3.22;;;;;;;5.15;40.30;100906.59;4965175;28;20045;-89
2024/01/30 00:38:16;;;;;;;5.25;3.00;;;;;;;5.11;40.17;100908.38;4981121;28;20070;-86
2024/01/30 00:40:42;;;;;;;5.00;2.97;;;;;;;5.09;40.41;100904.94;4980937;28;20057;-86
2024/01/30 00:43:07;;;;;;;6.50;3.60;;;;;;;5.08;40.23;100898.94;4964629;28;20135;-88
2024/01/30 00:45:34;;;;;;;5.75;3.25;;;;;;;5.05;40.36;100888.63;4981004;28;20081;-90
2024/01/30 00:47:59;;;;;;;4.10;2.85;;;;;;;5.05;40.46;100896.41;4997058;28;20623;-90
2024/01/30 00:50:25;;;;;;;6.07;3.40;;;;;;;5.06;40.58;100902.41;4980494;28;20128;-86
2024/01/30 00:52:50;;;;;;;6.07;3.22;;;;;;;5.01;40.37;100896.47;4980348;28;20056;-88
2024/01/30 00:55:16;;;;;;;4.85;2.90;;;;;;;5.02;40.77;100904.22;4964812;28;20072;-89
2024/01/30 00:57:41;;;;;;;6.13;3.17;;;;;;;4.97;40.83;100900.88;4980977;28;20493;-84
2024/01/30 01:00:08;;;;;;;6.50;3.25;;;;;;;5.02;41.00;100900.78;4964255;28;20046;-88
2024/01/30 01:02:35;;;;;;;7.25;3.67;;;;;;;4.99;40.71;100890.50;4980421;28;20109;-87
2024/01/30 01:05:00;;;;;;;5.13;2.97;;;;;;;5.03;41.06;100899.91;4980923;28;20092;-87
2024/01/30 01:07:26;;;;;;;4.97;3.08;;;;;;;5.00;40.97;100899.97;4981170;28;20038;-86
2024/01/30 01:09:51;;;;;;;6.50;3.63;;;;;;;5.01;40.50;100906.84;4963955;28;20054;-88
2024/01/30 01:12:17;;;;;;;7.57;3.67;;;;;;;4.95;40.86;100891.41;4980573;28;20057;-86
2024/01/30 01:14:42;;;;;;;5.03;3.28;;;;;;;4.96;40.78;100898.31;4963974;28;20045;-91
2024/01/30 01:17:08;;;;;;;5.05;3.22;;;;;;;4.98;41.04;100894.81;4964355;28;20038;-83
2024/01/30 01:19:33;;;;;;;5.15;3.08;;;;;;;5.00;41.33;100884.44;4996825;28;20038;-85
2024/01/30 01:21:59;;;;;;;4.90;3.20;;;;;;;4.97;41.15;100872.41;4999213;28;20093;-83
2024/01/30 01:24:24;;;;;;;5.13;2.92;;;;;;;4.94;41.41;100872.47;4965132;28;20043;-79
2024/01/30 01:26:50;;;;;;;6.13;3.20;;;;;;;4.94;40.93;100861.25;4963819;28;20489;-79
2024/01/30 01:29:16;;;;;;;4.68;3.20;;;;;;;5.01;41.11;100883.53;5013265;28;20045;-78
2024/01/30 01:31:44;;;;;;;6.00;3.00;;;;;;;5.02;41.21;100867.97;5013369;28;20502;-80
2024/01/30 01:34:11;;;;;;;5.22;2.97;;;;;;;5.00;40.91;100853.38;5014618;28;20116;-77
2024/01/30 01:36:36;;;;;;;5.63;3.28;;;;;;;5.01;40.76;100865.41;4964175;28;20121;-80
2024/01/30 01:39:02;;;;;;;5.00;3.17;;;;;;;5.05;40.68;100872.25;4996786;28;20509;-78
2024/01/30 01:41:31;;;;;;;6.05;3.58;;;;;;;5.06;40.95;100879.13;4964449;28;20037;-80
2024/01/30 01:43:57;;;;;;;7.63;3.60;;;;;;;5.03;40.73;100879.22;4996653;28;20030;-79
2024/01/30 01:46:23;;;;;;;5.20;2.85;;;;;;;5.02;40.93;100869.72;5014114;28;20038;-78
2024/01/30 01:48:48;;;;;;;5.80;3.30;;;;;;;5.06;40.80;100879.13;4980098;28;20489;-80
2024/01/30 01:51:14;;;;;;;5.53;3.17;;;;;;;5.04;40.84;100873.13;4996717;28;20084;-80
2024/01/30 01:53:39;;;;;;;5.05;3.15;;;;;;;5.10;41.05;100875.59;4996673;28;20076;-79
2024/01/30 01:56:06;;;;;;;7.13;3.90;;;;;;;5.07;40.89;100876.50;5014543;28;20064;-80
2024/01/30 01:58:31;;;;;;;5.35;3.28;;;;;;;5.07;40.95;100867.91;4980179;28;20037;-81
2024/01/30 02:00:57;;;;;;;5.43;2.83;;;;;;;5.06;40.77;100864.47;4964276;28;20145;-79
2024/01/30 02:03:23;;;;;;;5.88;3.08;;;;;;;5.06;40.97;100861.00;4980299;28;20401;-77
2024/01/30 02:05:50;;;;;;;4.82;3.10;;;;;;;5.06;40.86;100854.09;4980464;28;20041;-77
2024/01/30 02:08:15;;;;;;;5.05;3.35;;;;;;;5.11;40.74;100866.09;4980950;28;20041;-78
2024/01/30 02:10:41;;;;;;;4.13;2.80;;;;;;;5.03;41.03;100858.50;4996402;28;20042;-77
2024/01/30 02:13:06;;;;;;;6.18;3.08;;;;;;;5.07;41.13;100858.38;4980125;28;20567;-79
2024/01/30 02:15:32;;;;;;;6.93;3.03;;;;;;;5.03;40.74;100849.00;4963878;28;20046;-80
2024/01/30 02:17:57;;;;;;;5.43;3.13;;;;;;;5.09;41.09;100853.19;4996161;28;20092;-76
2024/01/30 02:20:23;;;;;;;5.60;3.10;;;;;;;5.01;41.10;100853.34;4996380;28;20052;-80
2024/01/30 02:22:49;;;;;;;6.78;3.55;;;;;;;5.04;41.32;100849.84;4980305;28;20037;-78
2024/01/30 02:25:14;;;;;;;5.45;3.22;;;;;;;4.96;41.09;100837.03;4996013;28;20040;-79
2024/01/30 02:27:40;;;;;;;5.47;3.20;;;;;;;4.98;41.40;100842.19;4979887;28;20141;-79
2024/01/30 02:30:06;;;;;;;5.70;3.45;;;;;;;4.98;41.59;100847.34;4995927;28;20151;-79
2024/01/30 02:32:31;;;;;;;5.75;3.55;;;;;;;4.99;41.64;100851.66;4980008;28;20037;-78
2024/01/30 02:34:57;;;;;;;5.03;3.17;;;;;;;4.99;41.66;100836.97;4979482;28;20042;-78
2024/01/30 02:37:22;;;;;;;5.05;3.38;;;;;;;5.00;41.64;100856.81;4980703;28;20037;-79
2024/01/30 02:39:48;;;;;;;5.93;3.42;;;;;;;4.96;42.06;100864.66;4995603;28;20038;-80
2024/01/30 02:42:13;;;;;;;6.35;3.35;;;;;;;4.93;42.06;100875.06;4996255;28;20044;-80
2024/01/30 02:44:39;;;;;;;5.72;3.42;;;;;;;4.89;41.83;100872.53;4996057;28;20038;-79
2024/01/30 02:47:04;;;;;;;6.32;3.42;;;;;;;4.93;41.89;100870.75;4980393;28;20038;-78
2024/01/30 02:49:30;;;;;;;5.43;3.70;;;;;;;4.86;42.25;100870.00;4979937;28;20069;-79
2024/01/30 02:51:56;;;;;;;6.32;3.40;;;;;;;4.92;42.39;100881.13;4995574;28;20050;-79
2024/01/30 02:54:22;;;;;;;6.15;3.75;;;;;;;4.93;41.96;100875.91;4980162;28;20042;-79
2024/01/30 02:56:48;;;;;;;7.10;3.90;;;;;;;4.97;42.31;100875.00;4979834;28;20041;-80
2024/01/30 02:59:13;;;;;;;5.65;3.53;;;;;;;5.00;42.37;100885.28;4963765;28;20034;-79
2024/01/30 03:01:43;;;;;;;7.95;3.83;;;;;;;5.01;41.84;100891.31;4963747;28;20044;-78
2024/01/30 03:04:09;;;;;;;5.32;3.22;;;;;;;5.05;42.03;100898.16;4979960;28;20102;-77
2024/01/30 03:06:34;;;;;;;7.22;3.33;;;;;;;5.00;42.03;100887.88;4995464;28;20506;-78
2024/01/30 03:09:00;;;;;;;5.80;3.30;;;;;;;5.04;42.06;100880.91;4979664;28;20069;-78
2024/01/30 03:11:25;;;;;;;7.10;3.63;;;;;;;5.13;42.10;100904.03;4978558;28;20054;-79
2024/01/30 03:13:51;;;;;;;5.18;3.50;;;;;;;5.15;42.21;100898.81;4995620;28;20049;-79
2024/01/30 03:16:16;;;;;;;5.18;3.45;;;;;;;5.18;41.86;100903.94;4995301;28;20046;-76
2024/01/30 03:18:42;;;;;;;5.85;3.40;;;;;;;5.16;42.27;100898.78;4978646;28;20514;-79
2024/01/30 03:21:07;;;;;;;5.45;3.40;;;;;;;5.20;42.04;100887.50;4979665;28;20037;-81
2024/01/30 03:23:33;;;;;;;6.28;3.42;;;;;;;5.19;41.98;100890.13;4979228;28;20419;-80
2024/01/30 03:25:58;;;;;;;7.93;3.53;;;;;;;5.19;41.58;100878.00;4995561;28;20084;-80
2024/01/30 03:28:24;;;;;;;6.18;3.55;;;;;;;5.23;41.42;100873.63;4962966;28;20486;-80
2024/01/30 03:30:49;;;;;;;6.18;3.60;;;;;;;5.29;41.47;100868.31;4995521;28;20046;-79
2024/01/30 03:33:15;;;;;;;6.47;3.45;;;;;;;5.27;41.56;100877.03;4978914;28;20041;-78
2024/01/30 03:35:40;;;;;;;6.00;3.42;;;;;;;5.25;41.32;100869.28;4994984;28;20049;-78
2024/01/30 03:38:06;;;;;;;6.10;3.30;;;;;;;5.27;41.47;100864.06;4978906;28;20042;-79
2024/01/30 03:40:32;;;;;;;6.20;3.75;;;;;;;5.32;41.28;100878.63;4978781;28;20053;-77
2024/01/30 03:42:57;;;;;;;6.28;3.50;;;;;;;5.38;41.46;100880.25;4962625;28;20038;-79
2024/01/30 03:45:23;;;;;;;7.03;3.35;;;;;;;5.36;41.28;100872.50;4994994;28;20100;-79
2024/01/30 03:47:49;;;;;;;7.10;3.50;;;;;;;5.40;41.73;100873.28;4995109;28;20088;-79
2024/01/30 03:50:14;;;;;;;5.85;3.72;;;;;;;5.37;41.59;100874.19;4994214;28;20046;-80
2024/01/30 03:52:40;;;;;;;5.53;3.50;;;;;;;5.38;41.24;100873.31;4981012;28;20057;-80
2024/01/30 03:55:05;;;;;;;8.00;3.70;;;;;;;5.44;41.16;100880.97;4982820;28;20046;-79
2024/01/30 03:57:31;;;;;;;5.60;3.55;;;;;;;5.48;41.42;100883.50;4982756;28;20509;-79
2024/01/30 03:59:57;;;;;;;6.82;4.10;;;;;;;5.47;41.29;100890.41;4982674;28;20408;-79
2024/01/30 04:02:22;;;;;;;6.45;3.67;;;;;;;5.50;41.17;100890.31;4982533;28;20041;-79
2024/01/30 04:04:48;;;;;;;6.22;3.80;;;;;;;5.46;41.42;100882.69;4998481;28;20132;-80
2024/01/30 04:07:13;;;;;;;6.32;3.75;;;;;;;5.51;41.44;100893.78;4982447;28;20038;-80
2024/01/30 04:09:39;;;;;;;6.55;3.70;;;;;;;5.47;41.39;100886.97;4982423;28;20049;-78
2024/01/30 04:12:05;;;;;;;6.63;3.95;;;;;;;5.54;41.50;100896.31;4998778;28;20049;-79
2024/01/30 04:14:30;;;;;;;5.38;3.38;;;;;;;5.55;41.27;100896.28;4998746;28;20049;-79
2024/01/30 04:16:56;;;;;;;7.43;3.92;;;;;;;5.52;41.43;100888.59;4998145;28;20065;-79
2024/01/30 04:19:21;;;;;;;7.13;4.10;;;;;;;5.58;41.28;100897.94;4982258;28;20049;-77
2024/01/30 04:21:47;;;;;;;7.25;3.85;;;;;;;5.58;41.63;100908.31;4998605;28;20041;-78
2024/01/30 04:24:12;;;;;;;6.20;3.80;;;;;;;5.54;41.43;100888.56;4981679;28;20096;-79
2024/01/30 04:26:38;;;;;;;6.25;3.63;;;;;;;5.59;41.84;100903.09;4965579;28;20038;-78
2024/01/30 04:29:03;;;;;;;6.05;4.00;;;;;;;5.59;42.00;100903.09;4965693;28;20412;-79
2024/01/30 04:31:29;;;;;;;6.65;3.83;;;;;;;5.52;41.56;100891.16;4997943;28;20038;-79
2024/01/30 04:33:54;;;;;;;6.03;3.78;;;;;;;5.58;41.88;100909.19;4981580;28;20417;-77
2024/01/30 04:36:20;;;;;;;8.48;4.70;;;;;;;5.58;41.71;100903.13;5015492;28;20080;-80
2024/01/30 04:38:45;;;;;;;8.48;4.80;;;;;;;5.59;41.92;100902.25;4965702;28;20472;-78
2024/01/30 04:41:11;;;;;;;8.40;4.68;;;;;;;5.59;41.99;100904.84;4965578;28;20113;-83
2024/01/30 04:43:36;;;;;;;9.75;4.40;;;;;;;5.62;46.34;100905.63;5015945;28;20042;-90
2024/01/30 04:46:02;;;;;;;6.35;3.97;;;;;;;5.62;44.48;100897.84;4982781;28;20052;-87
2024/01/30 04:48:27;;;;;;;7.47;4.03;;;;;;;5.61;44.00;100903.94;4968037;28;20038;-88
2024/01/30 04:50:53;;;;;;;7.30;3.95;;;;;;;5.68;48.80;100912.44;4999758;28;20054;-90
2024/01/30 04:53:19;;;;;;;7.60;4.20;;;;;;;5.73;48.67;100909.75;4983458;28;20034;-78
2024/01/30 04:55:44;;;;;;;6.65;4.15;;;;;;;5.75;46.91;100905.38;4965981;28;20045;-81
2024/01/30 04:58:10;;;;;;;15.65;4.18;;;;;;;5.83;50.04;100907.78;4981916;28;20413;-78
2024/01/30 05:00:35;;;;;;;8.40;3.20;;;;;;;5.93;57.68;100909.28;5015915;28;20045;-77
2024/01/30 05:03:01;;;;;;;7.20;3.80;;;;;;;5.95;54.50;100907.53;4964841;28;20494;-76
2024/01/30 05:05:26;;;;;;;9.07;4.47;;;;;;;5.97;51.83;100905.78;4980812;28;20080;-80
2024/01/30 05:07:52;;;;;;;7.10;4.22;;;;;;;5.97;52.77;100917.00;4965106;28;20042;-79
2024/01/30 05:10:18;;;;;;;14.23;5.38;;;;;;;5.90;50.21;100904.16;4997413;28;20136;-77
2024/01/30 05:12:44;;;;;;;7.20;4.60;;;;;;;5.90;49.34;100910.22;4997928;28;20081;-79
2024/01/30 05:15:09;;;;;;;8.07;4.68;;;;;;;5.86;48.96;100911.16;4997533;28;20094;-78
2024/01/30 05:17:35;;;;;;;7.72;4.60;;;;;;;5.78;47.94;100913.06;4980956;28;20055;-87
2024/01/30 05:20:00;;;;;;;8.68;4.88;;;;;;;5.82;47.27;100911.25;4981223;28;20522;-79
2024/01/30 05:22:26;;;;;;;8.32;4.97;;;;;;;5.80;46.44;100911.28;4965317;28;20213;-78
2024/01/30 05:24:51;;;;;;;8.40;5.10;;;;;;;5.70;46.06;100902.88;4997566;28;20398;-80
2024/01/30 05:27:17;;;;;;;9.43;5.65;;;;;;;5.66;45.44;100911.63;4964584;28;20429;-80
2024/01/30 05:29:44;;;;;;;10.25;4.88;;;;;;;5.60;45.41;100904.81;4997343;28;20049;-81
2024/01/30 05:32:10;;;;;;;8.73;5.20;;;;;;;5.61;45.35;100914.31;4965581;28;20402;-80
2024/01/30 05:34:36;;;;;;;8.68;5.50;;;;;;;5.59;45.15;100922.97;4980873;28;20084;-81
2024/01/30 05:37:02;;;;;;;9.15;5.22;;;;;;;5.55;45.05;100927.38;4980623;28;20061;-80
2024/01/30 05:39:27;;;;;;;9.63;5.20;;;;;;;5.47;44.79;100918.91;4997308;28;20045;-80
2024/01/30 05:41:53;;;;;;;10.93;5.40;;;;;;;5.43;44.49;100925.03;4964357;28;20412;-81
2024/01/30 05:44:19;;;;;;;11.10;5.40;;;;;;;5.45;44.79;100915.47;4964283;28;20514;-81
2024/01/30 05:46:44;;;;;;;8.30;5.00;;;;;;;5.47;44.34;100918.91;4980706;28;20042;-80
2024/01/30 05:49:10;;;;;;;8.98;4.90;;;;;;;5.45;44.56;100915.47;4964638;28;20054;-80
2024/01/30 05:51:35;;;;;;;8.15;4.90;;;;;;;5.37;44.27;100910.44;4964078;28;20049;-81
2024/01/30 05:54:03;;;;;;;7.75;5.22;;;;;;;5.42;44.38;100929.38;4993240;28;20041;-81
2024/01/30 05:56:29;;;;;;;9.73;5.30;;;;;;;5.40;44.40;100930.28;4981068;28;20049;-82
2024/01/30 05:58:55;;;;;;;8.77;4.80;;;;;;;5.37;43.87;100922.56;4995690;28;20292;-81
2024/01/30 06:01:21;;;;;;;9.68;5.18;;;;;;;5.41;44.29;100919.03;4980576;28;20528;-81
2024/01/30 06:03:46;;;;;;;7.28;4.57;;;;;;;5.35;44.39;100909.63;4980328;28;20053;-80
2024/01/30 06:06:12;;;;;;;9.05;5.10;;;;;;;5.41;44.21;100912.09;4964169;28;20513;-80
2024/01/30 06:08:37;;;;;;;8.95;5.18;;;;;;;5.41;43.98;100906.09;4980462;28;20418;-79
2024/01/30 06:11:03;;;;;;;10.13;5.47;;;;;;;5.42;43.93;100897.41;4963910;28;20042;-77
2024/01/30 06:13:31;;;;;;;9.15;5.13;;;;;;;5.39;44.16;100906.13;4994675;28;20045;-83
2024/01/30 06:15:57;;;;;;;8.02;5.00;;;;;;;5.41;43.92;100901.75;4964002;28;20061;-79
2024/01/30 06:18:23;;;;;;;8.07;4.70;;;;;;;5.37;43.99;100888.88;4963457;28;20077;-80
2024/01/30 06:20:49;;;;;;;11.05;4.70;;;;;;;5.33;43.91;100887.22;4981241;28;20038;-88
2024/01/30 06:23:14;;;;;;;7.70;4.65;;;;;;;5.42;43.38;100894.81;4980933;28;20469;-77
2024/01/30 06:25:40;;;;;;;14.15;3.58;;;;;;;6.50;66.30;100885.50;4979995;28;20041;-78
2024/01/30 06:28:06;;;;;;;12.40;3.47;;;;;;;6.68;60.73;100886.75;4963414;28;20038;-79
2024/01/30 06:30:31;;;;;;;8.57;3.92;;;;;;;6.69;56.18;100883.28;4995240;28;20084;-80
2024/01/30 06:32:57;;;;;;;18.52;4.38;;;;;;;6.59;53.48;100881.81;4978646;28;20042;-79
2024/01/30 06:35:22;;;;;;;6.97;3.90;;;;;;;6.50;52.53;100887.25;5012938;28;20092;-75
2024/01/30 06:37:48;;;;;;;8.27;3.83;;;;;;;6.60;55.00;100880.09;4984459;28;20042;-81
2024/01/30 06:40:13;;;;;;;6.25;3.75;;;;;;;6.60;52.59;100896.50;4962305;28;20042;-80
2024/01/30 06:42:39;;;;;;;8.85;4.05;;;;;;;6.75;54.67;100897.84;4995822;28;20034;-79
2024/01/30 06:45:05;;;;;;;5.85;4.05;;;;;;;6.75;53.41;100891.81;4963669;28;20030;-81
2024/01/30 06:47:30;;;;;;;11.60;4.05;;;;;;;6.69;50.37;100888.47;4995220;28;20096;-79
2024/01/30 06:49:56;;;;;;;8.23;3.85;;;;;;;6.62;49.59;100868.75;4979186;28;20049;-81
2024/01/30 06:52:21;;;;;;;8.40;4.18;;;;;;;6.68;48.37;100891.97;4946606;28;20142;-80
2024/01/30 06:54:47;;;;;;;6.00;4.25;;;;;;;6.67;47.83;100892.00;4959603;28;20070;-82
2024/01/30 06:57:14;;;;;;;7.43;3.88;;;;;;;6.68;46.81;100893.72;4960225;28;20050;-85
2024/01/30 06:59:43;;;;;;;7.57;3.85;;;;;;;6.69;45.74;100901.47;4959725;28;20038;-81
2024/01/30 07:02:10;;;;;;;6.55;3.42;;;;;;;6.90;57.16;100900.94;4957586;28;20161;-81
2024/01/30 07:04:37;;;;;;;6.95;3.60;;;;;;;7.00;53.80;100897.19;4928568;28;20046;-79
2024/01/30 07:07:04;;;;;;;7.32;4.32;;;;;;;6.97;51.00;100892.94;4926775;28;20055;-80
2024/01/30 07:09:30;;;;;;;8.80;4.95;;;;;;;7.04;48.94;100904.88;4950480;28;20038;-80
2024/01/30 07:11:58;;;;;;;7.95;4.38;;;;;;;7.08;47.15;100903.03;4924957;28;20121;-79
2024/01/30 07:14:24;;;;;;;8.27;5.15;;;;;;;7.04;46.66;100902.28;4971309;28;20121;-80
2024/01/30 07:16:50;;;;;;;7.10;4.40;;;;;;;7.07;45.76;100916.94;4976051;28;20162;-80
2024/01/30 07:19:15;;;;;;;7.88;4.63;;;;;;;7.00;44.94;100899.78;4943884;28;20034;-80
2024/01/30 07:21:41;;;;;;;6.93;4.38;;;;;;;7.03;44.45;100903.16;4959751;28;20046;-79
2024/01/30 07:24:07;;;;;;;7.18;4.45;;;;;;;7.05;44.01;100900.50;4959675;28;20030;-82
2024/01/30 07:26:37;;;;;;;7.55;4.55;;;;;;;7.09;43.39;100896.13;4976542;28;20486;-80
2024/01/30 07:29:03;;;;;;;6.60;4.43;;;;;;;7.11;42.78;100897.75;4975697;28;20080;-79
2024/01/30 07:31:29;;;;;;;7.97;4.43;;;;;;;7.13;42.70;100900.31;4975634;28;20042;-80
2024/01/30 07:33:54;;;;;;;6.53;4.10;;;;;;;7.09;41.86;100894.34;4943328;28;20030;-79
2024/01/30 07:36:20;;;;;;;6.82;4.18;;;;;;;7.15;41.79;100901.16;4959310;28;20489;-80
2024/01/30 07:38:45;;;;;;;8.55;3.83;;;;;;;7.16;44.86;100908.03;4959714;28;20458;-78
2024/01/30 07:41:11;;;;;;;6.68;3.78;;;;;;;7.34;46.72;100904.09;4959246;28;20423;-78
2024/01/30 07:43:38;;;;;;;8.07;4.65;;;;;;;7.33;44.98;100908.41;4974971;28;20045;-84
2024/01/30 07:46:06;;;;;;;5.63;3.80;;;;;;;7.32;43.85;100903.25;4974830;28;20038;-86
2024/01/30 07:48:33;;;;;;;7.03;3.83;;;;;;;7.31;42.99;100904.16;4961443;28;20109;-86
2024/01/30 07:50:59;;;;;;;8.57;4.57;;;;;;;7.34;42.43;100906.69;4975374;28;20069;-77
2024/01/30 07:53:25;;;;;;;6.43;4.22;;;;;;;7.36;41.89;100908.31;4943213;28;20034;-77
2024/01/30 07:55:50;;;;;;;6.65;4.20;;;;;;;7.37;41.93;100906.59;4958878;28;20034;-74
2024/01/30 07:58:16;;;;;;;6.47;2.97;;;;;;;7.50;54.61;100904.50;4992704;28;20053;-83
2024/01/30 08:00:41;;;;;;;7.32;2.78;;;;;;;8.60;59.62;100895.03;4943041;28;20066;-76
2024/01/30 08:03:08;;;;;;;4.18;2.58;;;;;;;8.63;53.89;100902.75;4992547;28;20042;-77
2024/01/30 08:05:34;;;;;;;4.25;2.45;;;;;;;8.58;51.36;100907.22;4974314;28;20038;-78
2024/01/30 08:07:59;;;;;;;5.93;2.88;;;;;;;8.44;49.59;100899.88;4991726;28;20482;-78
2024/01/30 08:10:25;;;;;;;4.85;3.22;;;;;;;8.35;46.66;100913.16;4975996;28;20050;-84
2024/01/30 08:12:50;;;;;;;5.78;3.47;;;;;;;8.28;46.59;100914.25;4976319;28;20494;-85
2024/01/30 08:15:16;;;;;;;5.70;3.38;;;;;;;9.43;43.52;100927.75;4976850;28;20093;-83
2024/01/30 08:17:41;;;;;;;5.28;3.22;;;;;;;10.43;41.87;100918.69;4944025;28;20129;-88
2024/01/30 08:20:11;;;;;;;4.20;2.72;;;;;;;10.73;40.39;100913.09;4960933;28;20038;-85
2024/01/30 08:22:39;;;;;;;5.72;2.83;;;;;;;10.76;39.21;100925.19;4962913;28;20046;-88
2024/01/30 08:25:05;;;;;;;5.40;3.55;;;;;;;10.63;38.28;100923.09;4952365;28;20117;-81
2024/01/30 08:27:31;;;;;;;4.82;2.70;;;;;;;10.48;37.33;100931.56;4958267;28;20141;-82
2024/01/30 08:29:56;;;;;;;4.97;2.75;;;;;;;10.33;37.50;100948.69;4976069;28;20092;-83
2024/01/30 08:32:23;;;;;;;5.53;2.88;;;;;;;10.21;37.36;100931.72;4944082;28;20081;-78
2024/01/30 08:34:49;;;;;;;4.45;2.63;;;;;;;10.06;37.01;100942.78;4958626;28;20039;-74
2024/01/30 08:37:16;;;;;;;5.82;2.83;;;;;;;9.98;36.64;100947.44;4992893;28;20107;-74
2024/01/30 08:39:43;;;;;;;5.18;2.70;;;;;;;9.75;36.44;100944.78;4978811;28;20041;-76
2024/01/30 08:42:08;;;;;;;4.03;2.70;;;;;;;9.68;36.31;100964.19;4962211;28;20046;-74
2024/01/30 08:44:33;;;;;;;14.98;3.05;;;;;;;9.68;44.86;100958.13;4978445;28;20089;-83
2024/01/30 08:46:59;;;;;;;23.05;3.25;;;;;;;10.28;52.46;100961.06;4962615;28;20062;-85
2024/01/30 08:49:25;;;;;;;19.73;3.28;;;;;;;10.28;49.52;100966.28;4980461;28;20402;-88
2024/01/30 08:51:50;;;;;;;18.45;3.42;;;;;;;10.26;46.85;100955.91;4953993;28;20115;-93
2024/01/30 08:54:17;;;;;;;9.80;2.80;;;;;;;10.18;47.04;100970.16;4989618;28;20042;-82
2024/01/30 08:56:44;;;;;;;26.42;3.58;;;;;;;10.18;50.88;100964.94;4947911;28;20510;-84
2024/01/30 08:59:11;;;;;;;13.80;3.13;;;;;;;10.40;50.56;100978.84;4964866;28;20046;-77
2024/01/30 09:01:36;;;;;;;12.40;3.22;;;;;;;10.25;46.63;100975.06;4962754;28;20065;-83
2024/01/30 09:04:02;;;;;;;12.35;2.95;;;;;;;10.10;45.26;100978.28;4962683;28;20069;-88
2024/01/30 09:06:28;;;;;;;7.05;3.00;;;;;;;9.90;43.68;100984.28;4998088;28;20049;-84
2024/01/30 09:08:54;;;;;;;11.32;3.60;;;;;;;9.74;42.80;100987.44;4978659;28;20046;-80
2024/01/30 09:11:19;;;;;;;16.70;2.92;;;;;;;9.62;41.91;100985.28;4978622;28;20038;-82
2024/01/30 09:13:45;;;;;;;7.30;3.15;;;;;;;9.61;41.18;100983.56;4978382;28;20042;-82
2024/01/30 09:16:10;;;;;;;10.63;2.80;;;;;;;9.52;48.54;100982.16;4996096;28;20057;-83
2024/01/30 09:18:36;;;;;;;15.93;3.33;;;;;;;9.59;46.07;100970.59;4962649;28;20057;-89
2024/01/30 09:21:01;;;;;;;14.25;3.08;;;;;;;9.69;43.18;100972.84;4961633;28;20042;-84
2024/01/30 09:23:27;;;;;;;11.50;3.03;;;;;;;9.67;41.95;100961.63;4976538;28;20414;-89
2024/01/30 09:25:53;;;;;;;6.60;3.00;;;;;;;9.69;41.10;100968.47;4959997;28;20039;-87
2024/01/30 09:28:18;;;;;;;4.80;3.17;;;;;;;9.66;40.08;100958.19;4989674;28;20089;-89
2024/01/30 09:30:44;;;;;;;8.63;3.10;;;;;;;9.63;39.21;100960.03;4966893;28;20415;-88
2024/01/30 09:33:09;;;;;;;5.38;3.40;;;;;;;9.63;38.63;100944.41;4965617;28;20038;-85
2024/01/30 09:35:36;;;;;;;7.00;2.83;;;;;;;9.60;38.55;100946.22;4953658;28;20061;-86
2024/01/30 09:38:02;;;;;;;5.32;2.80;;;;;;;9.49;38.00;100937.94;4951067;28;20053;-86
2024/01/30 09:40:27;;;;;;;4.72;2.78;;;;;;;9.35;37.77;100929.78;4964391;28;20054;-88
2024/01/30 09:42:53;;;;;;;5.55;3.13;;;;;;;9.35;37.22;100921.97;4968354;28;20038;-88
2024/01/30 09:45:19;;;;;;;8.95;3.13;;;;;;;9.26;36.58;100924.91;4965126;28;20089;-86
2024/01/30 09:47:45;;;;;;;7.80;2.90;;;;;;;9.11;36.94;100908.03;4966053;28;20450;-87
2024/01/30 09:50:12;;;;;;;5.15;3.15;;;;;;;9.03;37.05;100897.91;4963022;28;20131;-88
2024/01/30 09:52:37;;;;;;;6.13;2.83;;;;;;;8.99;36.57;100904.13;4946488;28;20062;-87
2024/01/30 09:55:03;;;;;;;4.97;3.03;;;;;;;8.84;36.89;100915.94;4962297;28;20040;-86
2024/01/30 09:57:29;;;;;;;4.63;2.70;;;;;;;8.68;36.84;100895.63;4946603;28;20046;-86
2024/01/30 09:59:54;;;;;;;4.18;2.90;;;;;;;8.68;37.47;100897.34;4978750;28;20049;-89
2024/01/30 10:02:20;;;;;;;5.90;3.17;;;;;;;8.62;37.14;100879.34;4947618;28;20551;-86
2024/01/30 10:04:50;;;;;;;6.05;3.30;;;;;;;8.61;36.91;100883.69;4963202;28;20453;-89
2024/01/30 10:07:16;;;;;;;5.60;2.85;;;;;;;8.53;36.81;100875.28;4964243;28;20126;-88
2024/01/30 10:09:41;;;;;;;5.28;3.05;;;;;;;8.54;36.89;100874.41;4963656;28;20042;-83
2024/01/30 10:12:07;;;;;;;5.60;3.08;;;;;;;8.49;36.60;100873.69;4978156;28;20054;-86
2024/01/30 10:14:33;;;;;;;6.15;3.50;;;;;;;8.47;36.61;100870.28;4962546;28;20413;-87
2024/01/30 10:16:59;;;;;;;9.15;3.25;;;;;;;8.52;36.73;100881.41;4962959;28;20038;-86
2024/01/30 10:19:25;;;;;;;5.90;3.22;;;;;;;8.51;36.60;100890.97;4946634;28;20042;-90
2024/01/30 10:21:50;;;;;;;4.53;3.15;;;;;;;8.72;36.42;100878.13;4965386;28;20038;-88
2024/01/30 10:24:17;;;;;;;5.13;3.40;;;;;;;8.61;36.79;100873.28;4948773;28;20042;-90
2024/01/30 10:26:44;;;;;;;5.25;3.20;;;;;;;8.54;36.44;100863.13;4963094;28;20476;-90
2024/01/30 10:29:09;;;;;;;7.70;3.28;;;;;;;8.59;36.63;100877.69;4965602;28;20045;-88
2024/01/30 10:31:35;;;;;;;6.70;3.33;;;;;;;8.66;36.33;100870.53;4962229;28;20042;-87
2024/01/30 10:34:00;;;;;;;4.68;3.20;;;;;;;8.63;36.61;100881.03;4944225;28;20133;-84
2024/01/30 10:36:29;;;;;;;5.38;3.42;;;;;;;8.61;36.54;100880.25;4961990;28;20482;-88
2024/01/30 10:38:55;;;;;;;5.78;3.20;;;;;;;8.68;36.39;100887.81;4980663;28;20062;-87
2024/01/30 10:41:24;;;;;;;5.28;3.33;;;;;;;8.70;36.48;100879.94;4948251;28;20581;-88
2024/01/30 10:43:54;;;;;;;5.22;3.50;;;;;;;9.01;36.48;100891.88;4964435;28;20038;-86
2024/01/30 10:46:20;;;;;;;5.97;3.53;;;;;;;9.17;35.86;100887.84;4946750;28;20049;-88
2024/01/30 10:48:58;;;;;;;6.68;3.55;;;;;;;9.23;35.75;100891.97;4945366;28;20049;-87
2024/01/30 10:51:24;;;;;;;7.63;3.33;;;;;;;9.22;35.69;100885.06;4961964;28;20054;-85
2024/01/30 10:53:50;;;;;;;5.10;3.20;;;;;;;9.32;35.52;100894.25;4944845;28;20038;-87
2024/01/30 10:56:16;;;;;;;5.65;3.17;;;;;;;9.58;35.13;100897.63;4945138;28;20053;-87
2024/01/30 10:58:41;;;;;;;5.68;3.10;;;;;;;9.78;34.58;100905.53;4946378;28;20045;-88
2024/01/30 11:01:07;;;;;;;4.40;2.83;;;;;;;9.67;35.15;100914.69;4964630;28;20034;-88
2024/01/30 11:03:36;;;;;;;4.63;2.80;;;;;;;9.83;34.74;100897.53;4961334;28;20045;-88
2024/01/30 11:06:01;;;;;;;;;;;;;;;9.93;34.57;100913.69;4962398;28;20034;-88
2024/01/30 11:08:30;;;;;;;5.40;2.78;;;;;;;10.41;33.99;100919.69;4995049;28;20366;-87
2024/01/30 11:10:57;;;;;;;7.93;3.53;;;;;;;10.98;33.09;100909.47;4961962;28;20529;-86
2024/01/30 11:13:23;;;;;;;5.20;2.95;;;;;;;11.56;32.48;100917.31;4945407;28;20046;-87
2024/01/30 11:15:48;;;;;;;5.63;2.83;;;;;;;11.98;31.92;100910.19;4963751;28;20065;-87
2024/01/30 11:18:24;;;;;;;6.57;3.13;;;;;;;12.34;31.31;100914.59;4979682;28;20073;-87
2024/01/30 11:20:49;;;;;;;4.45;2.75;;;;;;;12.52;31.20;100902.34;4962547;28;20490;-87
2024/01/30 11:23:15;;;;;;;3.90;2.60;;;;;;;12.85;30.14;100907.66;4963749;28;20034;-86
2024/01/30 11:25:41;;;;;;;5.43;2.42;;;;;;;13.00;30.29;100906.03;4981455;28;20030;-87